Cmb Sakura — 3EGO3 — position and weather

sailwx.info

Track history (hours):
 
Tides and Currents Weather Stations Pressure Air Temp Water Temp Dewpoint Dewpoint Depression Visibility Wind Speed Wind Dir Waves Ship Positions

Cmb Sakura

Last reported at 2016-Aug-26 16:30 UTC. Time now 2016-Aug-27 08:13 UTC.
Position N 38°57' E 118°06'.

Length 225 m; draft 6.5 m.

Type: Cargo ship. MMSI: 371784000.

Date/timePositionNaut miles runAvg speedWind from/ knotsBaromVisibWave heightAir tempDewpointWater temp
2016-Aug-26 16:30N 38°57' E 118°06'0 0.0
2016-Aug-26 15:06N 38°57' E 118°06'2 0.1
2016-Aug-25 19:29N 38°55' E 118°07'11413.7
2016-Aug-25 11:10N 38°41' E 120°32'1014.2
2016-Aug-25 10:30N 38°40' E 120°44'1415.2
2016-Aug-25 09:34N 38°34' E 121°01'1615.5
2016-Aug-25 08:32N 38°28' E 121°19'1515.6
2016-Aug-25 07:33N 38°31' E 121°39'1514.8
2016-Aug-25 06:34N 38°45' E 121°44'14 6.9
2016-Aug-25 04:31N 38°59' E 121°48'0 0.0
2016-Aug-25 01:31N 38°59' E 121°48'0 0.0
2016-Aug-25 00:25N 38°59' E 121°48'0 0.0
2016-Aug-24 23:31N 38°59' E 121°48'0 0.0
2016-Aug-24 22:31N 38°59' E 121°48'0 0.0
2016-Aug-24 21:25N 38°59' E 121°48'0 0.0
2016-Aug-24 18:32N 38°59' E 121°48'0 0.0
2016-Aug-24 17:23N 38°59' E 121°48'0 0.0
2016-Aug-24 14:23N 38°59' E 121°48'0 0.0
2016-Aug-24 07:11N 38°59' E 121°48'0 0.0
2016-Aug-24 06:20N 38°59' E 121°48'0 0.0
2016-Aug-24 04:10N 38°59' E 121°48'0 0.0
2016-Aug-23 20:04N 38°59' E 121°48'0 0.0
2016-Aug-23 19:28N 38°59' E 121°48'0 0.0
2016-Aug-23 18:29N 38°59' E 121°48'0 0.0
2016-Aug-23 12:19N 38°59' E 121°48'0 0.0
2016-Aug-23 09:16N 38°59' E 121°48'0 0.0
2016-Aug-23 05:25N 38°59' E 121°48'0 0.0
2016-Aug-23 04:28N 38°59' E 121°48'0 0.0
2016-Aug-23 02:13N 38°59' E 121°48'0 0.0
2016-Aug-22 20:16N 38°59' E 121°48'0 0.0
2016-Aug-22 19:25N 38°59' E 121°48'0 0.0
2016-Aug-22 17:31N 38°59' E 121°48'0 0.0
2016-Aug-22 16:25N 38°59' E 121°48'0 0.0
2016-Aug-22 15:31N 38°59' E 121°48'0 0.0
2016-Aug-22 08:26N 38°59' E 121°48'0 0.0
2016-Aug-22 07:11N 38°59' E 121°48'0 0.0
2016-Aug-22 06:22N 38°59' E 121°48'0 0.0
2016-Aug-22 05:22N 38°59' E 121°48'0 0.0
2016-Aug-22 04:29N 38°59' E 121°48'0 0.0
2016-Aug-22 03:20N 38°59' E 121°48'0 0.0
2016-Aug-22 02:22N 38°59' E 121°48'0 0.0
2016-Aug-22 01:10N 38°59' E 121°48'0 0.0
2016-Aug-22 00:32N 38°59' E 121°48'0 0.0
2016-Aug-21 21:32N 38°59' E 121°48'0 0.0
2016-Aug-21 16:23N 38°59' E 121°48'0 0.0
2016-Aug-21 15:29N 38°59' E 121°48'0 0.0
2016-Aug-21 14:23N 38°59' E 121°48'0 0.0
2016-Aug-21 13:31N 38°59' E 121°48'0 0.0
2016-Aug-21 12:28N 38°59' E 121°48'0 0.0
2016-Aug-21 10:16N 38°59' E 121°48'0 0.0
2016-Aug-21 06:13N 38°59' E 121°48'0 0.0
2016-Aug-21 05:29N 38°59' E 121°48'0 0.0
2016-Aug-21 04:32N 38°59' E 121°48'0 0.0
2016-Aug-21 03:31N 38°59' E 121°48'0 0.0
2016-Aug-21 02:25N 38°59' E 121°48'0 0.0
2016-Aug-21 00:29N 38°59' E 121°48'0 0.0
2016-Aug-20 18:22N 38°59' E 121°48'0 0.0
2016-Aug-20 17:22N 38°59' E 121°48'0 0.0
2016-Aug-20 16:22N 38°59' E 121°48'0 0.0
2016-Aug-20 15:16N 38°59' E 121°48'0 0.0
2016-Aug-20 14:05N 38°59' E 121°48'0 0.0
2016-Aug-20 13:16N 38°59' E 121°48'0 0.0
2016-Aug-20 12:17N 38°59' E 121°48'0 0.0
2016-Aug-20 04:07N 38°59' E 121°48'0 0.0
2016-Aug-20 02:16N 38°59' E 121°48'0 0.0
2016-Aug-20 01:28N 38°59' E 121°48'0 0.0
2016-Aug-20 00:28N 38°59' E 121°48'0 0.0
2016-Aug-19 23:25N 38°59' E 121°48'0 0.0
2016-Aug-19 17:25N 38°59' E 121°48'0 0.0
2016-Aug-19 13:31N 38°59' E 121°48'0 0.0
2016-Aug-19 12:22N 38°59' E 121°48'1 1.1
2016-Aug-19 11:33N 38°58' E 121°48'6 5.8
2016-Aug-19 10:33N 38°52' E 121°47'6 6.1
2016-Aug-19 09:31N 38°52' E 121°55'3 0.8
2016-Aug-19 05:31N 38°54' E 121°59'0 0.0
2016-Aug-18 02:07N 38°54' E 121°59'0 0.0
2016-Aug-18 01:07N 38°54' E 121°59'0 0.1
2016-Aug-17 22:31N 38°55' E 121°59'0 0.0
2016-Aug-17 20:31N 38°55' E 121°59'0 0.1
2016-Aug-17 16:31N 38°54' E 121°59'0 0.0
2016-Aug-17 15:13N 38°54' E 121°59'0 0.1
2016-Aug-17 14:13N 38°54' E 121°59'0 0.0
2016-Aug-17 13:32N 38°54' E 121°59'0 0.1
2016-Aug-17 12:19N 38°54' E 121°59'0 0.1
2016-Aug-17 11:28N 38°55' E 121°59'0 0.0
2016-Aug-17 09:25N 38°55' E 121°59'0 0.0
2016-Aug-17 08:31N 38°55' E 121°59'0 0.0
2016-Aug-17 07:31N 38°55' E 121°59'0 0.1
2016-Aug-17 06:16N 38°54' E 121°59'0 0.1
2016-Aug-17 05:28N 38°54' E 121°59'0 0.0
2016-Aug-17 04:28N 38°54' E 121°59'0 0.0
2016-Aug-17 03:28N 38°54' E 121°59'0 0.0
2016-Aug-17 02:31N 38°54' E 121°59'0 0.0
2016-Aug-17 01:31N 38°54' E 121°59'0 0.0
2016-Aug-17 00:31N 38°54' E 121°59'0 0.0
2016-Aug-16 23:31N 38°54' E 121°59'0 0.1
2016-Aug-16 22:31N 38°55' E 121°59'0 0.1
2016-Aug-16 21:31N 38°55' E 121°59'0 0.0
2016-Aug-16 20:31N 38°55' E 121°59'0 0.0
2016-Aug-16 19:28N 38°55' E 121°59'0 0.1
2016-Aug-16 18:31N 38°54' E 121°59'0 0.1
2016-Aug-16 17:28N 38°54' E 121°59'0 0.1
2016-Aug-16 16:31N 38°54' E 121°59'  
Track history (hours):
 
Tides and Currents Weather Stations Pressure Air Temp Water Temp Dewpoint Dewpoint Depression Visibility Wind Speed Wind Dir Waves Ship Positions

Cmb Sakura

Last reported at 2016-Aug-26 16:30 UTC. Time now 2016-Aug-27 08:13 UTC.
Position N 38°57' E 118°06'.

Length 225 m; draft 6.5 m.

Type: Cargo ship. MMSI: 371784000.

Date/timePositionNaut miles runAvg speedWind from/ knotsBaromVisibWave heightAir tempDewpointWater temp
2016-Aug-26 16:30N 38°57' E 118°06'0 0.0
2016-Aug-26 15:06N 38°57' E 118°06'2 0.1
2016-Aug-25 19:29N 38°55' E 118°07'11413.7
2016-Aug-25 11:10N 38°41' E 120°32'1014.2
2016-Aug-25 10:30N 38°40' E 120°44'1415.2
2016-Aug-25 09:34N 38°34' E 121°01'1615.5
2016-Aug-25 08:32N 38°28' E 121°19'1515.6
2016-Aug-25 07:33N 38°31' E 121°39'1514.8
2016-Aug-25 06:34N 38°45' E 121°44'14 6.9
2016-Aug-25 04:31N 38°59' E 121°48'0 0.0
2016-Aug-25 01:31N 38°59' E 121°48'0 0.0
2016-Aug-25 00:25N 38°59' E 121°48'0 0.0
2016-Aug-24 23:31N 38°59' E 121°48'0 0.0
2016-Aug-24 22:31N 38°59' E 121°48'0 0.0
2016-Aug-24 21:25N 38°59' E 121°48'0 0.0
2016-Aug-24 18:32N 38°59' E 121°48'0 0.0
2016-Aug-24 17:23N 38°59' E 121°48'0 0.0
2016-Aug-24 14:23N 38°59' E 121°48'0 0.0
2016-Aug-24 07:11N 38°59' E 121°48'0 0.0
2016-Aug-24 06:20N 38°59' E 121°48'0 0.0
2016-Aug-24 04:10N 38°59' E 121°48'0 0.0
2016-Aug-23 20:04N 38°59' E 121°48'0 0.0
2016-Aug-23 19:28N 38°59' E 121°48'0 0.0
2016-Aug-23 18:29N 38°59' E 121°48'0 0.0
2016-Aug-23 12:19N 38°59' E 121°48'0 0.0
2016-Aug-23 09:16N 38°59' E 121°48'0 0.0
2016-Aug-23 05:25N 38°59' E 121°48'0 0.0
2016-Aug-23 04:28N 38°59' E 121°48'0 0.0
2016-Aug-23 02:13N 38°59' E 121°48'0 0.0
2016-Aug-22 20:16N 38°59' E 121°48'0 0.0
2016-Aug-22 19:25N 38°59' E 121°48'0 0.0
2016-Aug-22 17:31N 38°59' E 121°48'0 0.0
2016-Aug-22 16:25N 38°59' E 121°48'0 0.0
2016-Aug-22 15:31N 38°59' E 121°48'0 0.0
2016-Aug-22 08:26N 38°59' E 121°48'0 0.0
2016-Aug-22 07:11N 38°59' E 121°48'0 0.0
2016-Aug-22 06:22N 38°59' E 121°48'0 0.0
2016-Aug-22 05:22N 38°59' E 121°48'0 0.0
2016-Aug-22 04:29N 38°59' E 121°48'0 0.0
2016-Aug-22 03:20N 38°59' E 121°48'0 0.0
2016-Aug-22 02:22N 38°59' E 121°48'0 0.0
2016-Aug-22 01:10N 38°59' E 121°48'0 0.0
2016-Aug-22 00:32N 38°59' E 121°48'0 0.0
2016-Aug-21 21:32N 38°59' E 121°48'0 0.0
2016-Aug-21 16:23N 38°59' E 121°48'0 0.0
2016-Aug-21 15:29N 38°59' E 121°48'0 0.0
2016-Aug-21 14:23N 38°59' E 121°48'0 0.0
2016-Aug-21 13:31N 38°59' E 121°48'0 0.0
2016-Aug-21 12:28N 38°59' E 121°48'0 0.0
2016-Aug-21 10:16N 38°59' E 121°48'0 0.0
2016-Aug-21 06:13N 38°59' E 121°48'0 0.0
2016-Aug-21 05:29N 38°59' E 121°48'0 0.0
2016-Aug-21 04:32N 38°59' E 121°48'0 0.0
2016-Aug-21 03:31N 38°59' E 121°48'0 0.0
2016-Aug-21 02:25N 38°59' E 121°48'0 0.0
2016-Aug-21 00:29N 38°59' E 121°48'0 0.0
2016-Aug-20 18:22N 38°59' E 121°48'0 0.0
2016-Aug-20 17:22N 38°59' E 121°48'0 0.0
2016-Aug-20 16:22N 38°59' E 121°48'0 0.0
2016-Aug-20 15:16N 38°59' E 121°48'0 0.0
2016-Aug-20 14:05N 38°59' E 121°48'0 0.0
2016-Aug-20 13:16N 38°59' E 121°48'0 0.0
2016-Aug-20 12:17N 38°59' E 121°48'0 0.0
2016-Aug-20 04:07N 38°59' E 121°48'0 0.0
2016-Aug-20 02:16N 38°59' E 121°48'0 0.0
2016-Aug-20 01:28N 38°59' E 121°48'0 0.0
2016-Aug-20 00:28N 38°59' E 121°48'0 0.0
2016-Aug-19 23:25N 38°59' E 121°48'0 0.0
2016-Aug-19 17:25N 38°59' E 121°48'0 0.0
2016-Aug-19 13:31N 38°59' E 121°48'0 0.0
2016-Aug-19 12:22N 38°59' E 121°48'1 1.1
2016-Aug-19 11:33N 38°58' E 121°48'6 5.8
2016-Aug-19 10:33N 38°52' E 121°47'6 6.1
2016-Aug-19 09:31N 38°52' E 121°55'3 0.8
2016-Aug-19 05:31N 38°54' E 121°59'0 0.0
2016-Aug-18 02:07N 38°54' E 121°59'0 0.0
2016-Aug-18 01:07N 38°54' E 121°59'0 0.1
2016-Aug-17 22:31N 38°55' E 121°59'0 0.0
2016-Aug-17 20:31N 38°55' E 121°59'0 0.1
2016-Aug-17 16:31N 38°54' E 121°59'0 0.0
2016-Aug-17 15:13N 38°54' E 121°59'0 0.1
2016-Aug-17 14:13N 38°54' E 121°59'0 0.0
2016-Aug-17 13:32N 38°54' E 121°59'0 0.1
2016-Aug-17 12:19N 38°54' E 121°59'0 0.1
2016-Aug-17 11:28N 38°55' E 121°59'0 0.0
2016-Aug-17 09:25N 38°55' E 121°59'0 0.0
2016-Aug-17 08:31N 38°55' E 121°59'0 0.0
2016-Aug-17 07:31N 38°55' E 121°59'0 0.1
2016-Aug-17 06:16N 38°54' E 121°59'0 0.1
2016-Aug-17 05:28N 38°54' E 121°59'0 0.0
2016-Aug-17 04:28N 38°54' E 121°59'0 0.0
2016-Aug-17 03:28N 38°54' E 121°59'0 0.0
2016-Aug-17 02:31N 38°54' E 121°59'0 0.0
2016-Aug-17 01:31N 38°54' E 121°59'0 0.0
2016-Aug-17 00:31N 38°54' E 121°59'0 0.0
2016-Aug-16 23:31N 38°54' E 121°59'0 0.1
2016-Aug-16 22:31N 38°55' E 121°59'0 0.1
2016-Aug-16 21:31N 38°55' E 121°59'0 0.0
2016-Aug-16 20:31N 38°55' E 121°59'0 0.0
2016-Aug-16 19:28N 38°55' E 121°59'0 0.1
2016-Aug-16 18:31N 38°54' E 121°59'0 0.1
2016-Aug-16 17:28N 38°54' E 121°59'0 0.1
2016-Aug-16 16:31N 38°54' E 121°59'  

Dump ship's entire track history